Time;durP1;ratioP1;P1;durP2;ratioP2;P2;SDS_P1;SDS_P2;PMS_P1;PMS_P2;Temp;Humidity;BMP_temperature;BMP_pressure;BME280_temperature;BME280_humidity;BME280_pressure;Samples;Min_cycle;Max_cycle;Signal;HPM_P1;HPM_P2
2023/09/15 00:01:36;;;;;;;14.98;8.38;;;;;;;13.42;76.35;99782.13;5071317;28;20047;-48
2023/09/15 00:04:05;;;;;;;22.15;11.18;;;;;;;13.20;76.44;99760.47;5077974;28;20118;-47
2023/09/15 00:06:34;;;;;;;23.27;10.45;;;;;;;13.32;76.39;99780.84;5053324;28;20456;-46
2023/09/15 00:09:00;;;;;;;18.38;9.85;;;;;;;13.30;76.82;99789.66;5074160;28;20047;-50
2023/09/15 00:11:39;;;;;;;21.10;9.63;;;;;;;13.30;77.11;99789.66;5075763;28;20706;-51
2023/09/15 00:14:05;;;;;;;23.50;10.18;;;;;;;12.95;77.00;99731.97;5076828;28;20044;-46
2023/09/15 00:16:31;;;;;;;21.38;9.95;;;;;;;13.27;77.24;99792.41;5071467;28;20044;-47
2023/09/15 00:18:57;;;;;;;20.38;9.73;;;;;;;13.25;77.41;99794.22;5071519;28;20401;-48
2023/09/15 00:21:22;;;;;;;21.55;8.93;;;;;;;13.21;77.36;99790.91;5061904;28;20528;-47
2023/09/15 00:23:48;;;;;;;18.13;9.60;;;;;;;13.20;77.81;99802.25;5072585;28;20397;-45
2023/09/15 00:26:14;;;;;;;17.17;9.07;;;;;;;13.20;77.53;99799.63;5073675;28;20057;-46
2023/09/15 00:28:40;;;;;;;22.75;9.13;;;;;;;13.19;77.76;99797.13;5074779;28;20059;-49
2023/09/15 00:31:06;;;;;;;17.23;8.25;;;;;;;13.16;77.90;99787.66;5076047;28;20068;-49
2023/09/15 00:33:32;;;;;;;16.25;8.05;;;;;;;13.16;78.24;99790.25;5067781;28;20144;-49
2023/09/15 00:36:00;;;;;;;21.27;8.90;;;;;;;13.16;78.17;99790.25;5061543;28;20281;-48
2023/09/15 00:38:26;;;;;;;21.80;8.77;;;;;;;13.13;78.48;99790.41;5072478;28;20591;-49
2023/09/15 00:40:52;;;;;;;19.95;9.02;;;;;;;13.12;78.72;99796.53;5089135;28;20128;-45
2023/09/15 00:43:18;;;;;;;18.33;8.00;;;;;;;13.10;79.07;99796.56;5080758;28;20036;-48
2023/09/15 00:45:44;;;;;;;16.65;8.23;;;;;;;13.08;79.23;99795.75;5046147;28;20055;-50
2023/09/15 00:48:10;;;;;;;19.08;8.55;;;;;;;13.06;79.34;99799.38;5076348;28;20036;-48
2023/09/15 00:50:37;;;;;;;17.65;8.38;;;;;;;13.03;79.46;99795.09;5073269;28;20046;-48
2023/09/15 00:53:05;;;;;;;18.33;9.25;;;;;;;13.02;79.64;99796.03;5065332;28;20130;-47
2023/09/15 00:55:33;;;;;;;16.02;8.15;;;;;;;13.00;79.63;99803.09;5051972;28;20127;-46
2023/09/15 00:58:02;;;;;;;13.80;8.00;;;;;;;12.79;80.25;99772.66;5074731;28;20464;-49
2023/09/15 01:00:29;;;;;;;16.77;8.18;;;;;;;12.96;80.45;99811.97;5078913;28;20600;-46
2023/09/15 01:02:55;;;;;;;20.45;8.68;;;;;;;12.96;80.60;99808.50;5090153;28;20530;-46
2023/09/15 01:05:23;;;;;;;17.23;7.57;;;;;;;12.94;80.55;99813.78;5074724;28;20086;-48
2023/09/15 01:07:52;;;;;;;16.42;7.50;;;;;;;12.95;80.62;99817.22;5073619;28;20542;-48
2023/09/15 01:10:23;;;;;;;16.45;8.05;;;;;;;12.91;80.60;99819.13;5051633;28;20591;-47
2023/09/15 01:12:49;;;;;;;13.05;7.80;;;;;;;12.93;80.69;99822.50;5076479;28;20051;-46
2023/09/15 01:15:17;;;;;;;13.75;8.00;;;;;;;12.91;80.81;99813.91;5065920;28;20024;-49
2023/09/15 01:18:02;;;;;;;16.90;7.68;;;;;;;12.92;81.25;99819.97;5072539;28;21684;-46
2023/09/15 01:20:47;;;;;;;14.93;7.95;;;;;;;12.92;81.23;99822.59;5080264;28;20050;-48
2023/09/15 01:23:23;;;;;;;16.45;8.15;;;;;;;12.91;81.57;99823.50;5075087;28;20065;-49
2023/09/15 01:25:55;;;;;;;17.83;7.97;;;;;;;12.91;81.48;99821.75;5070191;28;20512;-49
2023/09/15 01:28:55;;;;;;;20.13;8.15;;;;;;;12.92;81.49;99823.44;5078221;28;20058;-45
2023/09/15 01:31:22;;;;;;;16.77;7.45;;;;;;;12.92;81.48;99818.22;5057416;28;20045;-45
2023/09/15 01:33:48;;;;;;;19.98;8.32;;;;;;;12.94;81.47;99821.59;5075191;28;20060;-47
2023/09/15 01:36:13;;;;;;;19.55;7.80;;;;;;;12.95;81.94;99823.31;5074171;28;20119;-48
2023/09/15 01:38:39;;;;;;;15.75;7.97;;;;;;;12.93;81.79;99819.91;5064975;28;20067;-47
2023/09/15 01:41:05;;;;;;;15.15;7.05;;;;;;;12.96;82.17;99819.78;5069505;28;20044;-49
2023/09/15 01:43:31;;;;;;;18.30;7.65;;;;;;;12.98;81.83;99822.34;5065220;28;20051;-46
2023/09/15 01:45:57;;;;;;;12.70;7.68;;;;;;;12.97;82.42;99821.50;5066288;28;20111;-48
2023/09/15 01:48:23;;;;;;;24.92;8.13;;;;;;;12.99;82.11;99821.41;5070893;28;20423;-46
2023/09/15 01:50:49;;;;;;;18.10;8.27;;;;;;;12.98;82.28;99819.72;5073427;28;20431;-49
2023/09/15 01:53:15;;;;;;;18.48;8.20;;;;;;;12.98;82.33;99815.34;5068583;28;20035;-46
2023/09/15 01:55:43;;;;;;;16.33;8.43;;;;;;;12.84;82.25;99788.97;5075587;28;20048;-47
2023/09/15 01:58:08;;;;;;;16.05;7.78;;;;;;;13.00;82.09;99818.75;5078277;28;20040;-47
2023/09/15 02:00:36;;;;;;;15.88;7.80;;;;;;;13.02;82.11;99814.31;5045031;28;20826;-45
2023/09/15 02:03:03;;;;;;;23.77;7.85;;;;;;;13.04;82.06;99822.06;5076046;28;20044;-47
2023/09/15 02:05:29;;;;;;;15.98;7.72;;;;;;;13.05;82.23;99811.56;5055542;28;20051;-45
2023/09/15 02:07:55;;;;;;;18.65;8.20;;;;;;;12.87;82.21;99788.88;5087649;28;20044;-49
2023/09/15 02:10:21;;;;;;;17.15;7.93;;;;;;;13.05;82.14;99815.94;5078105;28;20044;-49
2023/09/15 02:12:47;;;;;;;19.08;7.57;;;;;;;13.09;82.12;99820.09;5075654;28;20051;-50
2023/09/15 02:15:14;;;;;;;23.90;7.68;;;;;;;13.11;81.87;99819.16;5058449;28;20712;-47
2023/09/15 02:17:42;;;;;;;20.08;7.90;;;;;;;12.98;81.56;99796.25;5064802;28;20097;-48
2023/09/15 02:20:18;;;;;;;15.07;7.97;;;;;;;13.13;81.84;99819.97;5076083;28;20040;-52
2023/09/15 02:22:45;;;;;;;20.02;8.43;;;;;;;13.12;81.96;99820.88;5071707;28;20039;-45
2023/09/15 02:25:11;;;;;;;18.73;8.18;;;;;;;13.13;82.04;99829.56;5076975;28;20045;-44
2023/09/15 02:27:38;;;;;;;17.67;7.88;;;;;;;13.04;82.26;99801.19;5077931;28;20419;-47
2023/09/15 02:30:06;;;;;;;13.93;7.45;;;;;;;13.14;82.29;99828.63;5077525;28;20044;-46
2023/09/15 02:32:35;;;;;;;18.33;7.93;;;;;;;13.18;82.30;99837.19;5054861;28;20540;-47
2023/09/15 02:35:01;;;;;;;17.48;8.25;;;;;;;13.17;82.15;99830.25;5066830;28;20155;-48
2023/09/15 02:37:30;;;;;;;;;;;;;;;13.16;81.90;99826.81;5077971;28;20039;-51
2023/09/15 02:39:56;;;;;;;15.10;8.02;;;;;;;13.13;82.14;99830.41;5064827;28;20315;-47
2023/09/15 02:42:22;;;;;;;13.27;7.38;;;;;;;13.15;82.25;99827.72;5079312;28;20054;-49
2023/09/15 02:44:48;;;;;;;15.57;7.85;;;;;;;13.21;82.13;99837.91;5060101;28;20499;-47
2023/09/15 02:47:15;;;;;;;21.38;8.10;;;;;;;13.21;82.13;99831.81;5079982;28;20039;-46
2023/09/15 02:49:41;;;;;;;22.35;8.27;;;;;;;13.03;82.04;99808.16;5067293;28;20539;-51
2023/09/15 02:52:07;;;;;;;15.85;8.10;;;;;;;13.23;81.73;99832.63;5072213;28;20081;-49
2023/09/15 02:54:33;;;;;;;20.90;8.32;;;;;;;13.23;81.65;99836.09;5065883;28;20044;-48
2023/09/15 02:56:59;;;;;;;15.88;8.35;;;;;;;13.23;81.62;99830.00;5066151;28;20071;-50
2023/09/15 02:59:26;;;;;;;16.27;8.25;;;;;;;13.22;81.49;99834.38;5073044;28;20515;-46
2023/09/15 03:01:53;;;;;;;19.80;8.48;;;;;;;13.08;81.74;99810.59;5074838;28;20035;-47
2023/09/15 03:04:21;;;;;;;21.63;8.85;;;;;;;13.29;81.43;99834.97;5046759;28;20056;-47
2023/09/15 03:06:48;;;;;;;16.55;7.68;;;;;;;13.29;81.22;99838.44;5061341;28;20084;-45
2023/09/15 03:09:14;;;;;;;15.27;8.20;;;;;;;13.30;81.26;99841.88;5062540;28;20066;-45
2023/09/15 03:11:40;;;;;;;17.40;7.85;;;;;;;13.29;81.26;99837.59;5062562;28;20064;-45
2023/09/15 03:14:09;;;;;;;17.15;8.05;;;;;;;13.05;81.50;99803.72;5090472;28;20036;-46
2023/09/15 03:16:35;;;;;;;;;;;;;;;13.25;81.31;99842.06;5069247;28;20036;-47
2023/09/15 03:19:01;;;;;;;14.90;9.70;;;;;;;13.21;81.41;99844.88;5050545;28;19921;-47
2023/09/15 03:21:27;;;;;;;20.08;8.80;;;;;;;13.22;81.77;99843.97;5054861;28;20044;-47
2023/09/15 03:23:53;;;;;;;19.75;8.68;;;;;;;13.23;81.61;99849.13;5069892;28;20103;-48
2023/09/15 03:26:19;;;;;;;15.35;9.02;;;;;;;13.12;81.67;99833.06;5063412;28;20464;-51
2023/09/15 03:28:49;;;;;;;20.13;7.97;;;;;;;13.26;81.64;99842.91;5054853;28;20474;-48
2023/09/15 03:31:16;;;;;;;22.73;9.45;;;;;;;13.27;81.78;99844.63;5070989;28;20135;-48
2023/09/15 03:33:42;;;;;;;21.33;8.90;;;;;;;13.31;81.62;99849.66;5066327;28;20045;-47
2023/09/15 03:36:12;;;;;;;26.50;8.63;;;;;;;13.31;81.61;99841.81;5053628;28;20079;-46
2023/09/15 03:38:38;;;;;;;21.80;9.50;;;;;;;13.35;81.50;99839.91;5061165;28;20044;-49
2023/09/15 03:41:07;;;;;;;23.77;9.77;;;;;;;13.31;81.64;99835.72;5078569;28;20127;-46
2023/09/15 03:43:33;;;;;;;25.08;9.27;;;;;;;13.37;81.34;99843.31;5058846;28;20097;-46
2023/09/15 03:45:59;;;;;;;22.55;9.60;;;;;;;13.42;81.39;99846.56;5072729;28;20048;-46
2023/09/15 03:48:26;;;;;;;23.17;8.70;;;;;;;13.43;81.54;99848.28;5049401;28;20055;-45
2023/09/15 03:50:52;;;;;;;25.48;9.38;;;;;;;13.43;81.47;99850.88;5060209;28;20037;-43
2023/09/15 03:53:19;;;;;;;19.35;9.02;;;;;;;13.43;81.42;99843.91;5072774;28;20043;-46
2023/09/15 03:55:45;;;;;;;24.08;9.60;;;;;;;13.43;80.94;99853.50;5072965;28;20427;-43
2023/09/15 03:58:11;;;;;;;18.95;10.07;;;;;;;13.46;81.09;99855.97;5079985;28;20046;-50
2023/09/15 04:00:37;;;;;;;24.63;11.98;;;;;;;13.47;80.67;99853.28;5076652;28;20036;-49
2023/09/15 04:03:04;;;;;;;21.45;9.73;;;;;;;13.46;80.51;99843.75;5052129;28;20431;-46
2023/09/15 04:05:31;;;;;;;21.77;9.30;;;;;;;13.50;80.65;99858.38;5073165;28;20526;-44
2023/09/15 04:07:59;;;;;;;19.00;9.27;;;;;;;13.52;80.55;99853.94;5078555;28;20052;-48
2023/09/15 04:10:26;;;;;;;22.27;9.45;;;;;;;13.45;80.46;99842.06;5052723;28;20093;-46
2023/09/15 04:12:52;;;;;;;18.42;9.60;;;;;;;13.60;80.44;99865.84;5079959;28;20567;-47
2023/09/15 04:15:18;;;;;;;19.23;9.52;;;;;;;13.62;80.34;99864.84;5071801;28;20131;-44
2023/09/15 04:17:45;;;;;;;26.40;10.80;;;;;;;13.48;80.13;99834.09;5053152;28;20641;-44
2023/09/15 04:20:11;;;;;;;24.70;11.48;;;;;;;13.71;80.18;99866.22;5077958;28;20048;-46
2023/09/15 04:22:40;;;;;;;18.17;10.05;;;;;;;13.76;80.00;99864.25;5083157;28;20063;-51
2023/09/15 04:25:08;;;;;;;22.63;10.43;;;;;;;13.82;79.95;99875.25;5080151;28;20132;-49
2023/09/15 04:27:34;;;;;;;23.45;10.18;;;;;;;13.88;79.39;99872.38;5079524;28;20286;-47
2023/09/15 04:30:02;;;;;;;25.02;10.13;;;;;;;13.79;79.31;99856.25;5077526;28;20130;-44
2023/09/15 04:32:33;;;;;;;18.80;9.98;;;;;;;13.99;78.99;99879.72;5054013;28;20091;-47
2023/09/15 04:35:00;;;;;;;21.92;10.15;;;;;;;14.03;78.97;99873.44;5069630;28;20862;-44
2023/09/15 04:37:26;;;;;;;22.42;10.45;;;;;;;14.09;78.83;99873.16;5088196;28;20036;-46
2023/09/15 04:39:54;;;;;;;79.95;14.68;;;;;;;14.15;78.98;99878.13;5070767;28;20037;-47
2023/09/15 04:42:20;;;;;;;16.17;9.50;;;;;;;13.90;78.86;99820.88;5055284;28;20050;-48
2023/09/15 04:44:46;;;;;;;29.02;10.43;;;;;;;14.31;78.81;99876.50;5070748;28;20037;-48
2023/09/15 04:47:13;;;;;;;23.08;9.95;;;;;;;14.41;78.60;99874.31;5081807;28;20052;-49
2023/09/15 04:49:40;;;;;;;20.88;9.43;;;;;;;14.49;78.36;99880.06;5073524;28;20799;-46
2023/09/15 04:52:06;;;;;;;29.00;9.65;;;;;;;14.58;77.99;99876.16;5054583;28;20046;-48
2023/09/15 04:54:33;;;;;;;24.35;10.27;;;;;;;14.68;77.82;99877.41;5068352;28;20051;-44
2023/09/15 04:56:59;;;;;;;24.60;9.73;;;;;;;14.75;77.65;99877.06;5064914;28;20144;-45
2023/09/15 04:59:25;;;;;;;25.73;13.30;;;;;;;14.84;77.56;99878.38;5078481;28;20048;-44
2023/09/15 05:01:51;;;;;;;20.65;11.63;;;;;;;14.89;77.06;99881.59;5078080;28;20054;-45
2023/09/15 05:04:21;;;;;;;26.50;10.13;;;;;;;14.76;76.65;99860.41;5074025;28;20045;-45
2023/09/15 05:06:47;;;;;;;26.80;10.70;;;;;;;15.00;76.65;99892.41;5084860;28;20087;-47
2023/09/15 05:09:18;;;;;;;21.55;9.32;;;;;;;15.05;76.46;99890.41;5075148;28;20063;-47
2023/09/15 05:11:44;;;;;;;22.30;9.10;;;;;;;15.21;75.98;99885.25;5058513;28;20050;-47
2023/09/15 05:14:10;;;;;;;25.13;9.80;;;;;;;15.36;75.46;99891.50;5059475;28;20036;-47
2023/09/15 05:16:37;;;;;;;23.63;9.57;;;;;;;15.46;75.37;99888.31;5049276;28;20071;-45
2023/09/15 05:19:03;;;;;;;29.67;10.88;;;;;;;15.46;74.41;99858.66;5079745;28;20051;-45
2023/09/15 05:21:29;;;;;;;26.00;12.05;;;;;;;15.76;73.97;99885.06;5072920;28;20048;-49
2023/09/15 05:23:55;;;;;;;30.38;13.32;;;;;;;15.87;73.95;99886.22;5062176;28;20036;-49
2023/09/15 05:26:21;;;;;;;32.65;13.15;;;;;;;16.01;73.38;99882.88;5074341;28;20085;-47
2023/09/15 05:28:48;;;;;;;22.83;11.23;;;;;;;16.19;72.70;99892.38;5076054;28;20044;-46
2023/09/15 05:31:14;;;;;;;25.65;11.48;;;;;;;16.37;71.26;99886.13;5073970;28;20053;-51
2023/09/15 05:33:41;;;;;;;25.10;11.90;;;;;;;16.59;70.68;99883.16;5071138;28;20103;-49
2023/09/15 05:36:06;;;;;;;23.15;9.90;;;;;;;16.81;69.89;99888.06;5066323;28;20072;-52
2023/09/15 05:38:32;;;;;;;21.52;10.57;;;;;;;17.04;68.60;99886.75;5060203;28;20487;-49
2023/09/15 05:40:59;;;;;;;17.15;9.82;;;;;;;17.17;66.50;99893.00;5050553;28;20076;-47
2023/09/15 05:43:25;;;;;;;16.33;9.60;;;;;;;17.43;65.33;99899.38;5054434;28;20435;-49
2023/09/15 05:45:51;;;;;;;19.13;9.63;;;;;;;17.77;64.15;99897.31;5068483;28;20040;-51
2023/09/15 05:48:22;;;;;;;19.27;9.38;;;;;;;18.38;62.74;99895.28;5065561;28;20055;-51
2023/09/15 05:50:50;;;;;;;16.10;8.82;;;;;;;18.96;60.71;99874.84;5070724;28;20548;-49
2023/09/15 05:53:16;;;;;;;16.85;8.18;;;;;;;19.81;58.04;99900.75;5073108;28;20054;-46
2023/09/15 05:55:43;;;;;;;20.30;9.35;;;;;;;20.43;55.52;99878.81;5068653;28;20037;-45
2023/09/15 05:58:09;;;;;;;14.95;8.13;;;;;;;21.41;53.51;99899.72;5075955;28;20135;-49
2023/09/15 06:00:34;;;;;;;15.93;8.32;;;;;;;22.06;51.62;99896.50;5075364;28;20127;-53
2023/09/15 06:03:01;;;;;;;13.10;8.55;;;;;;;22.56;49.82;99884.56;5076173;28;20446;-49
2023/09/15 06:05:28;;;;;;;14.43;7.35;;;;;;;23.19;47.86;99897.00;5069911;28;20471;-50
2023/09/15 06:07:54;;;;;;;11.98;6.57;;;;;;;23.87;45.07;99898.34;5068867;28;20052;-50
2023/09/15 06:10:20;;;;;;;12.45;6.68;;;;;;;24.64;43.30;99898.69;5062170;28;20395;-49
2023/09/15 06:12:50;;;;;;;11.77;7.07;;;;;;;25.44;41.08;99885.13;5063645;28;20527;-47
2023/09/15 06:15:16;;;;;;;11.95;7.22;;;;;;;25.89;40.31;99896.00;5060029;28;20612;-47
2023/09/15 06:17:41;;;;;;;15.00;7.13;;;;;;;26.31;38.77;99893.78;5043414;28;20136;-46
2023/09/15 06:20:08;;;;;;;15.23;7.90;;;;;;;26.43;38.09;99896.06;5070493;28;20039;-52
2023/09/15 06:22:34;;;;;;;13.38;7.00;;;;;;;26.49;37.16;99897.31;5069354;28;20039;-49
2023/09/15 06:25:01;;;;;;;11.07;6.38;;;;;;;26.87;36.50;99897.09;5073999;28;20563;-49
2023/09/15 06:27:32;;;;;;;14.75;6.22;;;;;;;27.34;34.99;99883.50;5083517;28;20060;-52
2023/09/15 06:29:59;;;;;;;14.25;6.72;;;;;;;28.15;34.19;99895.66;5062414;28;20040;-47
2023/09/15 06:32:25;;;;;;;12.65;6.20;;;;;;;29.56;32.78;99903.69;5078885;28;20426;-49
2023/09/15 06:34:51;;;;;;;12.63;6.22;;;;;;;30.57;31.30;99899.38;5080145;28;20039;-49
2023/09/15 06:37:17;;;;;;;9.55;6.50;;;;;;;31.62;29.38;99913.13;5066910;28;20564;-47
2023/09/15 06:39:43;;;;;;;12.32;6.00;;;;;;;31.56;28.66;99909.31;5049020;28;20105;-47
2023/09/15 06:42:10;;;;;;;8.48;5.35;;;;;;;31.65;27.89;99916.31;5061839;28;20045;-52
2023/09/15 06:44:41;;;;;;;10.48;4.35;;;;;;;29.52;28.42;99902.31;5075461;28;20040;-50
2023/09/15 06:47:07;;;;;;;9.82;4.95;;;;;;;27.89;30.25;99901.97;5075247;28;20032;-49
2023/09/15 06:49:32;;;;;;;6.50;5.18;;;;;;;27.45;31.21;99901.97;5058111;28;20101;-51
2023/09/15 06:51:58;;;;;;;6.88;4.70;;;;;;;27.61;30.87;99912.81;5078265;28;20089;-46
2023/09/15 06:54:24;;;;;;;7.43;4.25;;;;;;;27.04;31.53;99906.13;5073341;28;20107;-46
2023/09/15 06:56:50;;;;;;;11.57;4.53;;;;;;;27.37;31.00;99884.03;5075898;28;20496;-53
2023/09/15 06:59:17;;;;;;;10.45;4.32;;;;;;;26.72;31.70;99901.25;5082262;28;20097;-50
2023/09/15 07:01:44;;;;;;;8.10;4.57;;;;;;;26.55;31.81;99891.38;5062421;28;20047;-45
2023/09/15 07:04:12;;;;;;;8.80;4.20;;;;;;;26.47;32.37;99893.97;5072096;28;20120;-47
2023/09/15 07:06:41;;;;;;;9.00;4.43;;;;;;;26.20;32.96;99900.09;5068866;28;20055;-44
2023/09/15 07:09:07;;;;;;;;;;;;;;;25.88;33.52;99897.84;5079852;28;20036;-45
2023/09/15 07:11:33;;;;;;;8.45;4.20;;;;;;;25.71;33.84;99894.09;5077615;28;19927;-49
2023/09/15 07:13:59;;;;;;;6.72;4.30;;;;;;;25.56;34.00;99894.69;5081789;28;20043;-45
2023/09/15 07:16:26;;;;;;;7.95;4.40;;;;;;;25.80;33.79;99899.56;5078154;28;20036;-45
2023/09/15 07:18:52;;;;;;;8.57;4.75;;;;;;;25.89;34.03;99898.69;5075410;28;20413;-47
2023/09/15 07:21:18;;;;;;;9.00;4.80;;;;;;;25.77;34.06;99898.00;5077524;28;20100;-45
2023/09/15 07:23:44;;;;;;;7.13;4.95;;;;;;;25.45;34.25;99903.63;5064906;28;20052;-49
2023/09/15 07:26:10;;;;;;;9.77;4.13;;;;;;;25.46;34.52;99907.13;5070984;28;20072;-49
2023/09/15 07:28:35;;;;;;;6.40;3.95;;;;;;;25.03;34.39;99881.81;5076568;28;20538;-47
2023/09/15 07:31:05;;;;;;;8.77;3.95;;;;;;;24.26;35.93;99910.88;5078987;28;20036;-47
2023/09/15 07:33:31;;;;;;;8.68;4.22;;;;;;;23.73;36.84;99899.53;5077250;28;20050;-47
2023/09/15 07:36:03;;;;;;;8.10;3.80;;;;;;;23.71;37.21;99911.28;5063285;28;20459;-50
2023/09/15 07:38:30;;;;;;;9.85;4.32;;;;;;;23.27;37.51;99889.28;5059086;28;20036;-52
2023/09/15 07:40:56;;;;;;;5.20;3.60;;;;;;;23.18;37.63;99913.91;5082991;28;20059;-48
2023/09/15 07:43:24;;;;;;;4.13;3.28;;;;;;;23.08;37.44;99895.25;5068799;28;20448;-50
2023/09/15 07:45:50;;;;;;;5.32;3.47;;;;;;;23.58;36.72;99893.72;5068819;28;20097;-48
2023/09/15 07:48:17;;;;;;;5.90;3.67;;;;;;;24.48;35.73;99918.66;5068982;28;20168;-47
2023/09/15 07:50:43;;;;;;;13.15;3.58;;;;;;;24.53;35.10;99877.50;5092206;28;20399;-49
2023/09/15 07:53:09;;;;;;;6.18;3.20;;;;;;;25.30;34.81;99926.34;5065232;28;20097;-48
2023/09/15 07:55:36;;;;;;;12.63;3.90;;;;;;;25.04;34.52;99879.97;5067793;28;20090;-51
2023/09/15 07:58:02;;;;;;;12.20;4.10;;;;;;;24.96;34.64;99891.34;5069732;28;20712;-51
2023/09/15 08:00:28;;;;;;;9.80;3.92;;;;;;;25.12;34.75;99914.72;5066748;28;20471;-48
2023/09/15 08:02:53;;;;;;;8.48;3.60;;;;;;;25.05;34.42;99927.75;5071307;28;20048;-47
2023/09/15 08:05:19;;;;;;;6.30;3.15;;;;;;;24.95;34.61;99928.72;5084315;28;20056;-46
2023/09/15 08:07:46;;;;;;;4.97;3.15;;;;;;;24.88;34.54;99926.59;5065859;28;20055;-49
2023/09/15 08:10:13;;;;;;;6.00;3.30;;;;;;;25.06;34.25;99917.94;5082922;28;20096;-51
2023/09/15 08:12:39;;;;;;;6.55;3.63;;;;;;;25.28;33.95;99920.31;5072071;28;20040;-49
2023/09/15 08:15:06;;;;;;;6.07;2.97;;;;;;;25.30;33.92;99931.66;5077757;28;20051;-52
2023/09/15 08:17:32;;;;;;;8.98;3.20;;;;;;;24.74;34.26;99905.69;5081019;28;20041;-51
2023/09/15 08:19:59;;;;;;;6.07;3.15;;;;;;;24.69;34.02;99926.53;5088068;28;20040;-47
2023/09/15 08:22:26;;;;;;;5.07;2.97;;;;;;;25.23;33.68;99928.72;5060167;28;20036;-47
2023/09/15 08:24:53;;;;;;;4.15;2.83;;;;;;;25.19;33.03;99922.00;5068336;28;20493;-47
2023/09/15 08:27:19;;;;;;;4.95;3.05;;;;;;;25.48;33.35;99924.66;5079155;28;20093;-50
2023/09/15 08:29:45;;;;;;;5.00;2.60;;;;;;;25.90;32.54;99913.69;5077086;28;20372;-46
2023/09/15 08:32:13;;;;;;;4.90;3.00;;;;;;;26.46;31.15;99938.47;5058779;28;20098;-49
2023/09/15 08:34:41;;;;;;;2.60;2.40;;;;;;;26.88;31.25;99929.97;5069229;28;20036;-49
2023/09/15 08:37:07;;;;;;;7.97;3.15;;;;;;;27.24;30.56;99928.16;5075638;28;20093;-49
2023/09/15 08:39:33;;;;;;;5.68;2.97;;;;;;;27.62;29.97;99932.34;5056937;28;20076;-50
2023/09/15 08:42:04;;;;;;;3.38;2.50;;;;;;;26.88;29.87;99935.31;5074713;28;20040;-51
2023/09/15 08:44:33;;;;;;;5.35;2.70;;;;;;;26.80;30.49;99927.16;5054173;28;20045;-52
2023/09/15 08:47:04;;;;;;;5.95;3.10;;;;;;;27.39;30.09;99929.28;5057309;28;20040;-49
2023/09/15 08:49:30;;;;;;;6.13;2.88;;;;;;;28.45;29.21;99931.72;5068206;28;20520;-48
2023/09/15 08:51:56;;;;;;;4.40;2.53;;;;;;;28.81;28.24;99928.84;5050874;28;20784;-48
2023/09/15 08:54:22;;;;;;;6.60;3.05;;;;;;;28.86;28.09;99923.84;5068910;28;20042;-45
2023/09/15 08:56:48;;;;;;;4.43;2.65;;;;;;;29.25;27.77;99929.44;5063950;28;20047;-49
2023/09/15 08:59:14;;;;;;;5.82;3.20;;;;;;;29.51;27.25;99940.88;5072019;28;20040;-46
2023/09/15 09:01:40;;;;;;;4.50;2.97;;;;;;;28.88;27.81;99929.88;5049847;28;20447;-49
2023/09/15 09:04:07;;;;;;;4.85;3.08;;;;;;;28.71;28.00;99922.75;5065192;28;20036;-48
2023/09/15 09:06:37;;;;;;;5.63;3.40;;;;;;;28.06;28.76;99920.59;5070095;28;20408;-47
2023/09/15 09:09:07;;;;;;;6.35;3.15;;;;;;;27.47;29.24;99910.69;5069634;28;20040;-46
2023/09/15 09:11:33;;;;;;;5.22;3.40;;;;;;;27.33;29.78;99922.72;5070259;28;20361;-48
2023/09/15 09:13:58;;;;;;;4.85;2.80;;;;;;;27.40;29.19;99918.47;5069433;28;20045;-47
2023/09/15 09:16:25;;;;;;;4.35;2.95;;;;;;;26.92;29.87;99912.66;5058844;28;20041;-45
2023/09/15 09:18:58;;;;;;;4.03;2.67;;;;;;;26.83;29.88;99927.72;5060642;28;20611;-51
2023/09/15 09:21:28;;;;;;;4.05;2.40;;;;;;;26.83;30.24;99926.88;5078810;28;20067;-48
2023/09/15 09:23:55;;;;;;;4.85;3.00;;;;;;;26.73;30.07;99918.94;5066946;28;20423;-48
2023/09/15 09:26:21;;;;;;;9.13;3.58;;;;;;;26.66;30.46;99922.34;5071615;28;20134;-47
2023/09/15 09:28:47;;;;;;;6.30;3.40;;;;;;;27.19;30.33;99917.94;5064287;28;20040;-49
2023/09/15 09:31:15;;;;;;;6.50;3.20;;;;;;;27.50;30.09;99888.19;5064464;28;20531;-44
2023/09/15 09:33:42;;;;;;;4.07;3.00;;;;;;;27.92;29.54;99918.53;5067830;28;20067;-48
2023/09/15 09:36:15;;;;;;;4.57;3.25;;;;;;;27.82;29.37;99883.06;5068981;28;20052;-46
2023/09/15 09:38:43;;;;;;;8.15;3.30;;;;;;;28.06;29.36;99912.59;5032171;28;20036;-46
2023/09/15 09:41:13;;;;;;;4.75;3.40;;;;;;;27.70;29.78;99919.03;5061939;28;20043;-52
2023/09/15 09:43:40;;;;;;;5.80;3.33;;;;;;;27.23;30.48;99923.81;5033847;28;20044;-49
2023/09/15 09:46:06;;;;;;;7.05;3.58;;;;;;;26.84;30.94;99917.91;5076817;28;20100;-50
2023/09/15 09:48:36;;;;;;;6.88;3.88;;;;;;;26.11;31.50;99891.16;5075920;28;20062;-46
2023/09/15 09:51:03;;;;;;;6.28;3.85;;;;;;;26.13;32.39;99923.00;5073639;28;20059;-47
2023/09/15 09:53:32;;;;;;;9.25;4.10;;;;;;;25.88;32.78;99918.31;5063251;28;20112;-46
2023/09/15 09:56:03;;;;;;;6.93;3.25;;;;;;;25.90;32.35;99911.88;5076799;28;20129;-51
2023/09/15 09:58:29;;;;;;;6.45;3.53;;;;;;;26.11;32.03;99914.31;5045774;28;20049;-47
2023/09/15 10:00:54;;;;;;;7.55;3.42;;;;;;;26.60;31.36;99914.94;5076266;28;20170;-47
2023/09/15 10:03:21;;;;;;;7.13;3.60;;;;;;;27.14;30.86;99920.22;5067895;28;20078;-47
2023/09/15 10:05:48;;;;;;;4.82;2.97;;;;;;;27.03;30.74;99930.28;5085777;28;20150;-46
2023/09/15 10:08:15;;;;;;;6.00;3.00;;;;;;;26.69;30.68;99920.25;5071336;28;20076;-48
2023/09/15 10:10:45;;;;;;;7.65;3.22;;;;;;;26.38;31.55;99917.00;5075218;28;20114;-48
2023/09/15 10:13:13;;;;;;;5.03;2.85;;;;;;;26.27;31.72;99929.72;5083060;28;20127;-47
2023/09/15 10:15:43;;;;;;;9.00;3.53;;;;;;;26.02;31.82;99904.50;5077663;28;20558;-47
2023/09/15 10:18:12;;;;;;;7.93;3.33;;;;;;;25.78;32.34;99926.31;5068801;28;20040;-46
2023/09/15 10:20:41;;;;;;;6.25;3.30;;;;;;;25.53;32.97;99922.41;5063900;28;20484;-48
2023/09/15 10:23:07;;;;;;;5.57;3.80;;;;;;;25.25;32.72;99900.16;5071478;28;20195;-51
2023/09/15 10:25:43;;;;;;;4.80;2.67;;;;;;;25.35;33.32;99921.44;5059123;28;20114;-46
2023/09/15 10:28:13;;;;;;;3.97;3.10;;;;;;;25.34;33.25;99919.75;5086006;28;20083;-53
2023/09/15 10:30:40;;;;;;;4.85;3.40;;;;;;;24.84;33.62;99901.22;5072584;28;20463;-51
2023/09/15 10:33:08;;;;;;;4.88;3.63;;;;;;;24.71;34.31;99921.91;5061213;28;20139;-49
2023/09/15 10:35:34;;;;;;;4.80;3.15;;;;;;;24.68;34.03;99916.88;5074171;28;20048;-49
2023/09/15 10:38:03;;;;;;;3.20;2.65;;;;;;;24.58;34.15;99917.81;5071972;28;20105;-48
2023/09/15 10:40:49;;;;;;;3.60;2.90;;;;;;;24.67;34.06;99917.00;5074489;28;20167;-46
2023/09/15 10:43:19;;;;;;;3.83;3.10;;;;;;;24.75;34.45;99920.69;5071355;28;21682;-46
2023/09/15 10:46:14;;;;;;;7.38;3.28;;;;;;;24.75;34.39;99904.72;5076787;28;20146;-49
2023/09/15 10:48:46;;;;;;;3.38;2.78;;;;;;;24.88;34.31;99931.91;5056434;28;20055;-48
2023/09/15 10:51:22;;;;;;;4.80;3.20;;;;;;;25.17;34.35;99933.78;5068825;28;20041;-48
2023/09/15 10:53:59;;;;;;;4.88;2.78;;;;;;;25.44;33.82;99933.06;5074283;28;20110;-52
2023/09/15 10:56:25;;;;;;;7.30;3.17;;;;;;;25.38;33.94;99907.03;5072714;28;20407;-48
2023/09/15 10:58:51;;;;;;;6.30;3.35;;;;;;;25.66;33.37;99941.63;5053752;28;20035;-49
2023/09/15 11:01:18;;;;;;;6.53;3.17;;;;;;;25.18;34.01;99938.09;5066992;28;20129;-50
2023/09/15 11:03:44;;;;;;;7.18;3.30;;;;;;;24.92;34.85;99934.28;5071766;28;20371;-48
2023/09/15 11:06:12;;;;;;;9.48;3.13;;;;;;;24.71;34.96;99932.53;5077964;28;20451;-47
2023/09/15 11:08:39;;;;;;;9.15;3.45;;;;;;;24.79;35.13;99924.75;5073742;28;20131;-45
2023/09/15 11:11:09;;;;;;;8.52;3.70;;;;;;;24.79;34.81;99929.22;5081676;28;20064;-44
2023/09/15 11:13:36;;;;;;;4.68;3.63;;;;;;;24.25;35.43;99937.56;5075457;28;20142;-46
2023/09/15 11:16:02;;;;;;;6.57;3.35;;;;;;;24.02;35.47;99924.41;5075670;28;20040;-47
2023/09/15 11:18:32;;;;;;;8.07;3.30;;;;;;;23.81;36.08;99926.28;5081126;28;20108;-45
2023/09/15 11:20:58;;;;;;;6.40;3.20;;;;;;;23.42;36.32;99884.47;5077361;28;20047;-46
2023/09/15 11:23:24;;;;;;;3.20;2.90;;;;;;;23.66;36.55;99935.53;5074434;28;20048;-51
2023/09/15 11:26:05;;;;;;;5.88;3.60;;;;;;;23.51;36.75;99921.72;5074728;28;20040;-51
2023/09/15 11:28:31;;;;;;;8.45;3.85;;;;;;;23.61;36.61;99935.91;5070696;28;20049;-49
2023/09/15 11:30:58;;;;;;;6.68;3.38;;;;;;;23.63;36.79;99941.94;5077438;28;20062;-52